sensor_id;sensor_type;location;lat;lon;timestamp;P1;P2;P0
49343;PMS5003;35210;41.606;-87.602;2022-10-15T00:01:33;2.00;2.00;1.00
49343;PMS5003;35210;41.606;-87.602;2022-10-15T00:04:03;3.00;1.00;0.00
49343;PMS5003;35210;41.606;-87.602;2022-10-15T00:06:31;3.40;2.00;1.00
49343;PMS5003;35210;41.606;-87.602;2022-10-15T00:09:00;3.00;2.00;1.20
49343;PMS5003;35210;41.606;-87.602;2022-10-15T00:11:30;1.40;1.00;1.00
49343;PMS5003;35210;41.606;-87.602;2022-10-15T00:13:58;3.00;3.00;1.00
49343;PMS5003;35210;41.606;-87.602;2022-10-15T00:16:27;3.80;2.80;1.20
49343;PMS5003;35210;41.606;-87.602;2022-10-15T00:18:56;2.40;2.40;1.60
49343;PMS5003;35210;41.606;-87.602;2022-10-15T00:21:25;5.80;2.00;1.60
49343;PMS5003;35210;41.606;-87.602;2022-10-15T00:23:56;4.20;3.20;2.20
49343;PMS5003;35210;41.606;-87.602;2022-10-15T00:26:25;2.80;2.80;1.00
49343;PMS5003;35210;41.606;-87.602;2022-10-15T00:28:56;3.00;1.80;1.00
49343;PMS5003;35210;41.606;-87.602;2022-10-15T00:31:26;2.40;1.60;1.00
49343;PMS5003;35210;41.606;-87.602;2022-10-15T00:33:58;5.60;2.40;1.00
49343;PMS5003;35210;41.606;-87.602;2022-10-15T00:36:28;4.00;3.20;1.00
49343;PMS5003;35210;41.606;-87.602;2022-10-15T00:39:01;2.00;2.00;1.00
49343;PMS5003;35210;41.606;-87.602;2022-10-15T00:41:32;2.00;2.00;1.00
49343;PMS5003;35210;41.606;-87.602;2022-10-15T00:47:08;2.80;2.80;1.00
49343;PMS5003;35210;41.606;-87.602;2022-10-15T00:49:44;2.00;2.00;1.00
49343;PMS5003;35210;41.606;-87.602;2022-10-15T00:52:19;2.00;1.00;0.20
49343;PMS5003;35210;41.606;-87.602;2022-10-15T00:54:53;2.00;2.00;1.00
49343;PMS5003;35210;41.606;-87.602;2022-10-15T00:57:26;2.00;1.00;1.00
49343;PMS5003;35210;41.606;-87.602;2022-10-15T00:59:58;1.80;1.00;0.00
49343;PMS5003;35210;41.606;-87.602;2022-10-15T01:02:31;4.00;2.60;2.00
49343;PMS5003;35210;41.606;-87.602;2022-10-15T01:04:59;1.60;1.20;1.00
49343;PMS5003;35210;41.606;-87.602;2022-10-15T01:07:28;2.20;2.00;0.00
49343;PMS5003;35210;41.606;-87.602;2022-10-15T01:09:57;2.00;2.00;1.60
49343;PMS5003;35210;41.606;-87.602;2022-10-15T01:12:29;3.20;1.20;1.00
49343;PMS5003;35210;41.606;-87.602;2022-10-15T01:15:08;2.00;2.00;0.40
49343;PMS5003;35210;41.606;-87.602;2022-10-15T01:17:44;3.00;2.00;1.00
49343;PMS5003;35210;41.606;-87.602;2022-10-15T01:20:25;3.80;2.00;1.00
49343;PMS5003;35210;41.606;-87.602;2022-10-15T01:26:33;4.60;3.80;1.20
49343;PMS5003;35210;41.606;-87.602;2022-10-15T01:29:23;1.80;1.00;0.00
49343;PMS5003;35210;41.606;-87.602;2022-10-15T01:32:13;0.80;0.20;0.00
49343;PMS5003;35210;41.606;-87.602;2022-10-15T01:34:49;3.00;2.80;1.60
49343;PMS5003;35210;41.606;-87.602;2022-10-15T01:37:24;3.60;3.00;1.40
49343;PMS5003;35210;41.606;-87.602;2022-10-15T01:40:01;3.00;3.00;1.40
49343;PMS5003;35210;41.606;-87.602;2022-10-15T01:42:37;3.00;3.00;1.00
49343;PMS5003;35210;41.606;-87.602;2022-10-15T01:45:13;2.40;2.40;0.40
49343;PMS5003;35210;41.606;-87.602;2022-10-15T01:47:49;3.40;2.20;1.00
49343;PMS5003;35210;41.606;-87.602;2022-10-15T01:50:21;1.00;1.00;0.20
49343;PMS5003;35210;41.606;-87.602;2022-10-15T01:52:53;2.60;2.60;1.20
49343;PMS5003;35210;41.606;-87.602;2022-10-15T01:55:24;2.20;2.20;1.00
49343;PMS5003;35210;41.606;-87.602;2022-10-15T01:57:54;3.40;3.00;2.00
49343;PMS5003;35210;41.606;-87.602;2022-10-15T02:00:24;3.00;3.00;1.00
49343;PMS5003;35210;41.606;-87.602;2022-10-15T02:02:54;5.80;3.00;1.80
49343;PMS5003;35210;41.606;-87.602;2022-10-15T02:05:27;5.20;3.80;2.00
49343;PMS5003;35210;41.606;-87.602;2022-10-15T02:08:00;3.00;3.00;2.00
49343;PMS5003;35210;41.606;-87.602;2022-10-15T02:10:37;4.00;2.80;2.00
49343;PMS5003;35210;41.606;-87.602;2022-10-15T02:13:15;2.20;2.20;1.40
49343;PMS5003;35210;41.606;-87.602;2022-10-15T02:15:51;3.80;3.00;1.40
49343;PMS5003;35210;41.606;-87.602;2022-10-15T02:18:31;4.00;4.00;2.00
49343;PMS5003;35210;41.606;-87.602;2022-10-15T02:21:07;2.40;2.40;1.00
49343;PMS5003;35210;41.606;-87.602;2022-10-15T02:23:40;3.00;3.00;2.00
49343;PMS5003;35210;41.606;-87.602;2022-10-15T02:26:13;2.40;1.80;1.00
49343;PMS5003;35210;41.606;-87.602;2022-10-15T02:28:44;3.00;3.00;2.20
49343;PMS5003;35210;41.606;-87.602;2022-10-15T02:31:17;2.60;1.60;1.00
49343;PMS5003;35210;41.606;-87.602;2022-10-15T02:33:50;4.40;4.40;2.00
49343;PMS5003;35210;41.606;-87.602;2022-10-15T02:36:21;3.80;3.00;1.80
49343;PMS5003;35210;41.606;-87.602;2022-10-15T02:38:50;3.00;3.00;1.00
49343;PMS5003;35210;41.606;-87.602;2022-10-15T02:41:21;5.20;3.20;2.00
49343;PMS5003;35210;41.606;-87.602;2022-10-15T02:43:49;5.20;3.00;2.00
49343;PMS5003;35210;41.606;-87.602;2022-10-15T02:46:18;4.00;4.00;2.00
49343;PMS5003;35210;41.606;-87.602;2022-10-15T02:48:47;7.00;4.00;2.80
49343;PMS5003;35210;41.606;-87.602;2022-10-15T02:51:17;5.80;2.80;2.00
49343;PMS5003;35210;41.606;-87.602;2022-10-15T02:53:45;5.80;4.00;2.20
49343;PMS5003;35210;41.606;-87.602;2022-10-15T02:56:14;3.80;3.80;2.00
49343;PMS5003;35210;41.606;-87.602;2022-10-15T02:58:42;4.40;4.00;2.00
49343;PMS5003;35210;41.606;-87.602;2022-10-15T03:01:10;4.00;4.00;3.00
49343;PMS5003;35210;41.606;-87.602;2022-10-15T03:03:38;5.00;4.00;2.00
49343;PMS5003;35210;41.606;-87.602;2022-10-15T03:06:07;5.80;5.40;3.60
49343;PMS5003;35210;41.606;-87.602;2022-10-15T03:08:39;7.60;4.80;2.00
49343;PMS5003;35210;41.606;-87.602;2022-10-15T03:11:08;3.80;3.00;2.40
49343;PMS5003;35210;41.606;-87.602;2022-10-15T03:13:37;9.40;6.80;3.40
49343;PMS5003;35210;41.606;-87.602;2022-10-15T03:16:07;4.80;4.80;3.20
49343;PMS5003;35210;41.606;-87.602;2022-10-15T03:18:36;4.40;4.40;2.00
49343;PMS5003;35210;41.606;-87.602;2022-10-15T03:21:05;7.00;5.00;2.60
49343;PMS5003;35210;41.606;-87.602;2022-10-15T03:23:34;7.00;5.40;2.00
49343;PMS5003;35210;41.606;-87.602;2022-10-15T03:26:04;5.20;5.00;3.00
49343;PMS5003;35210;41.606;-87.602;2022-10-15T03:28:32;4.00;4.00;2.40
49343;PMS5003;35210;41.606;-87.602;2022-10-15T03:31:02;6.40;5.60;3.20
49343;PMS5003;35210;41.606;-87.602;2022-10-15T03:33:31;4.40;4.00;2.00
49343;PMS5003;35210;41.606;-87.602;2022-10-15T03:35:59;5.00;5.00;3.00
49343;PMS5003;35210;41.606;-87.602;2022-10-15T03:38:28;4.80;4.00;2.00
49343;PMS5003;35210;41.606;-87.602;2022-10-15T03:40:56;5.60;5.60;3.60
49343;PMS5003;35210;41.606;-87.602;2022-10-15T03:43:26;6.20;5.20;3.00
49343;PMS5003;35210;41.606;-87.602;2022-10-15T03:45:54;3.00;3.00;2.00
49343;PMS5003;35210;41.606;-87.602;2022-10-15T03:48:23;3.60;3.60;1.00
49343;PMS5003;35210;41.606;-87.602;2022-10-15T03:50:52;4.40;3.00;2.00
49343;PMS5003;35210;41.606;-87.602;2022-10-15T03:53:21;3.40;2.60;1.80
49343;PMS5003;35210;41.606;-87.602;2022-10-15T03:55:51;3.60;3.60;1.80
49343;PMS5003;35210;41.606;-87.602;2022-10-15T03:58:22;3.00;3.00;1.20
49343;PMS5003;35210;41.606;-87.602;2022-10-15T04:00:53;2.20;2.20;1.20
49343;PMS5003;35210;41.606;-87.602;2022-10-15T04:03:23;4.80;2.80;1.40
49343;PMS5003;35210;41.606;-87.602;2022-10-15T04:05:52;4.00;3.00;2.00
49343;PMS5003;35210;41.606;-87.602;2022-10-15T04:08:20;8.80;3.00;1.00
49343;PMS5003;35210;41.606;-87.602;2022-10-15T04:10:49;3.40;3.20;1.60
49343;PMS5003;35210;41.606;-87.602;2022-10-15T04:13:18;4.60;2.20;1.20
49343;PMS5003;35210;41.606;-87.602;2022-10-15T04:15:46;3.00;3.00;1.00
49343;PMS5003;35210;41.606;-87.602;2022-10-15T04:18:16;2.40;1.80;1.00
49343;PMS5003;35210;41.606;-87.602;2022-10-15T04:20:45;3.00;2.80;2.00
49343;PMS5003;35210;41.606;-87.602;2022-10-15T04:23:14;5.00;2.60;1.80
49343;PMS5003;35210;41.606;-87.602;2022-10-15T04:25:43;2.00;1.00;1.00
49343;PMS5003;35210;41.606;-87.602;2022-10-15T04:28:12;4.20;2.20;1.20
49343;PMS5003;35210;41.606;-87.602;2022-10-15T04:30:40;3.40;2.80;2.00
49343;PMS5003;35210;41.606;-87.602;2022-10-15T04:33:08;5.80;2.60;1.80
49343;PMS5003;35210;41.606;-87.602;2022-10-15T04:35:38;3.20;3.20;2.00
49343;PMS5003;35210;41.606;-87.602;2022-10-15T04:38:08;4.60;2.40;1.20
49343;PMS5003;35210;41.606;-87.602;2022-10-15T04:40:36;2.00;2.00;1.00
49343;PMS5003;35210;41.606;-87.602;2022-10-15T04:43:05;2.80;2.80;1.80
49343;PMS5003;35210;41.606;-87.602;2022-10-15T04:45:33;2.60;2.20;2.00
49343;PMS5003;35210;41.606;-87.602;2022-10-15T04:48:01;2.80;2.80;2.00
49343;PMS5003;35210;41.606;-87.602;2022-10-15T04:50:30;4.40;3.20;2.00
49343;PMS5003;35210;41.606;-87.602;2022-10-15T04:53:01;4.00;4.00;1.00
49343;PMS5003;35210;41.606;-87.602;2022-10-15T04:55:29;2.60;2.60;1.60
49343;PMS5003;35210;41.606;-87.602;2022-10-15T04:58:00;3.80;3.00;1.60
49343;PMS5003;35210;41.606;-87.602;2022-10-15T05:00:29;3.00;3.00;2.00
49343;PMS5003;35210;41.606;-87.602;2022-10-15T05:02:57;6.40;4.00;2.20
49343;PMS5003;35210;41.606;-87.602;2022-10-15T05:05:26;3.20;3.20;2.00
49343;PMS5003;35210;41.606;-87.602;2022-10-15T05:07:57;7.80;3.40;3.00
49343;PMS5003;35210;41.606;-87.602;2022-10-15T05:10:29;3.80;3.00;2.00
49343;PMS5003;35210;41.606;-87.602;2022-10-15T05:13:00;2.80;2.40;1.40
49343;PMS5003;35210;41.606;-87.602;2022-10-15T05:15:29;4.20;4.00;2.20
49343;PMS5003;35210;41.606;-87.602;2022-10-15T05:17:57;3.60;3.60;1.80
49343;PMS5003;35210;41.606;-87.602;2022-10-15T05:20:25;6.40;3.00;2.00
49343;PMS5003;35210;41.606;-87.602;2022-10-15T05:22:54;4.00;3.40;2.20
49343;PMS5003;35210;41.606;-87.602;2022-10-15T05:25:26;2.00;2.00;1.80
49343;PMS5003;35210;41.606;-87.602;2022-10-15T05:27:55;2.00;2.00;2.00
49343;PMS5003;35210;41.606;-87.602;2022-10-15T05:30:24;3.00;3.00;2.00
49343;PMS5003;35210;41.606;-87.602;2022-10-15T05:32:52;4.40;2.20;1.60
49343;PMS5003;35210;41.606;-87.602;2022-10-15T05:35:21;3.60;2.80;1.80
49343;PMS5003;35210;41.606;-87.602;2022-10-15T05:37:50;2.80;2.80;2.00
49343;PMS5003;35210;41.606;-87.602;2022-10-15T05:40:19;3.20;2.60;1.00
49343;PMS5003;35210;41.606;-87.602;2022-10-15T05:42:51;3.20;2.60;2.00
49343;PMS5003;35210;41.606;-87.602;2022-10-15T05:45:19;3.00;3.00;2.00
49343;PMS5003;35210;41.606;-87.602;2022-10-15T05:47:52;4.80;3.00;2.00
49343;PMS5003;35210;41.606;-87.602;2022-10-15T05:50:20;2.40;2.00;2.00
49343;PMS5003;35210;41.606;-87.602;2022-10-15T05:52:49;5.00;3.00;2.00
49343;PMS5003;35210;41.606;-87.602;2022-10-15T05:55:18;4.00;3.00;1.80
49343;PMS5003;35210;41.606;-87.602;2022-10-15T05:57:46;2.40;2.00;1.60
49343;PMS5003;35210;41.606;-87.602;2022-10-15T06:00:18;4.00;3.80;2.00
49343;PMS5003;35210;41.606;-87.602;2022-10-15T06:02:47;3.00;3.00;2.00
49343;PMS5003;35210;41.606;-87.602;2022-10-15T06:05:15;3.60;3.00;2.00
49343;PMS5003;35210;41.606;-87.602;2022-10-15T06:07:44;8.00;4.00;2.00
49343;PMS5003;35210;41.606;-87.602;2022-10-15T06:10:14;3.80;2.00;1.60
49343;PMS5003;35210;41.606;-87.602;2022-10-15T06:12:42;4.60;3.00;1.00
49343;PMS5003;35210;41.606;-87.602;2022-10-15T06:15:18;4.40;4.40;2.60
49343;PMS5003;35210;41.606;-87.602;2022-10-15T06:17:46;1.80;1.80;1.00
49343;PMS5003;35210;41.606;-87.602;2022-10-15T06:20:17;3.80;3.80;2.00
49343;PMS5003;35210;41.606;-87.602;2022-10-15T06:22:46;3.00;3.00;2.00
49343;PMS5003;35210;41.606;-87.602;2022-10-15T06:25:14;2.00;2.00;0.00
49343;PMS5003;35210;41.606;-87.602;2022-10-15T06:27:43;2.60;2.60;2.00
49343;PMS5003;35210;41.606;-87.602;2022-10-15T06:30:11;4.80;2.80;2.00
49343;PMS5003;35210;41.606;-87.602;2022-10-15T06:32:42;3.20;2.20;2.00
49343;PMS5003;35210;41.606;-87.602;2022-10-15T06:35:15;3.20;3.20;2.00
49343;PMS5003;35210;41.606;-87.602;2022-10-15T06:37:43;2.20;2.00;1.00
49343;PMS5003;35210;41.606;-87.602;2022-10-15T06:40:12;1.20;1.20;0.60
49343;PMS5003;35210;41.606;-87.602;2022-10-15T06:42:40;3.40;3.00;2.20
49343;PMS5003;35210;41.606;-87.602;2022-10-15T06:45:10;5.80;3.40;2.00
49343;PMS5003;35210;41.606;-87.602;2022-10-15T06:47:39;2.80;2.80;2.00
49343;PMS5003;35210;41.606;-87.602;2022-10-15T06:50:09;4.80;3.00;3.00
49343;PMS5003;35210;41.606;-87.602;2022-10-15T06:52:37;6.40;3.00;2.20
49343;PMS5003;35210;41.606;-87.602;2022-10-15T06:55:06;5.40;3.60;2.40
49343;PMS5003;35210;41.606;-87.602;2022-10-15T06:57:35;3.60;3.00;1.40
49343;PMS5003;35210;41.606;-87.602;2022-10-15T07:00:03;4.20;3.00;2.80
49343;PMS5003;35210;41.606;-87.602;2022-10-15T07:02:33;6.20;2.40;1.80
49343;PMS5003;35210;41.606;-87.602;2022-10-15T07:05:02;5.00;3.00;2.00
49343;PMS5003;35210;41.606;-87.602;2022-10-15T07:07:34;4.00;3.00;2.00
49343;PMS5003;35210;41.606;-87.602;2022-10-15T07:10:03;4.00;2.20;2.00
49343;PMS5003;35210;41.606;-87.602;2022-10-15T07:12:31;2.80;2.00;2.00
49343;PMS5003;35210;41.606;-87.602;2022-10-15T07:15:00;0.00;0.00;0.00
49343;PMS5003;35210;41.606;-87.602;2022-10-15T07:17:28;5.60;3.20;1.40
49343;PMS5003;35210;41.606;-87.602;2022-10-15T07:19:56;4.00;4.00;2.00
49343;PMS5003;35210;41.606;-87.602;2022-10-15T07:22:25;1.20;1.20;0.00
49343;PMS5003;35210;41.606;-87.602;2022-10-15T07:24:55;2.00;2.00;1.00
49343;PMS5003;35210;41.606;-87.602;2022-10-15T07:27:24;3.80;2.00;1.00
49343;PMS5003;35210;41.606;-87.602;2022-10-15T07:29:52;2.60;2.00;1.00
49343;PMS5003;35210;41.606;-87.602;2022-10-15T07:32:20;3.00;3.00;2.00
49343;PMS5003;35210;41.606;-87.602;2022-10-15T07:34:49;3.00;2.80;2.00
49343;PMS5003;35210;41.606;-87.602;2022-10-15T07:37:17;3.00;2.60;2.00
49343;PMS5003;35210;41.606;-87.602;2022-10-15T07:39:46;3.00;3.00;1.00
49343;PMS5003;35210;41.606;-87.602;2022-10-15T07:42:18;2.00;2.00;1.20
49343;PMS5003;35210;41.606;-87.602;2022-10-15T07:44:47;2.00;2.00;1.00
49343;PMS5003;35210;41.606;-87.602;2022-10-15T07:47:16;3.00;3.00;1.40
49343;PMS5003;35210;41.606;-87.602;2022-10-15T07:49:44;4.60;4.60;2.00
49343;PMS5003;35210;41.606;-87.602;2022-10-15T07:52:12;3.60;2.20;1.00
49343;PMS5003;35210;41.606;-87.602;2022-10-15T07:54:40;4.20;2.60;1.00
49343;PMS5003;35210;41.606;-87.602;2022-10-15T07:57:09;2.40;1.60;1.00
49343;PMS5003;35210;41.606;-87.602;2022-10-15T07:59:39;1.60;1.60;1.00
49343;PMS5003;35210;41.606;-87.602;2022-10-15T08:02:10;2.60;2.60;2.00
49343;PMS5003;35210;41.606;-87.602;2022-10-15T08:04:42;3.00;3.00;1.20
49343;PMS5003;35210;41.606;-87.602;2022-10-15T08:07:10;6.00;3.60;1.40
49343;PMS5003;35210;41.606;-87.602;2022-10-15T08:09:38;5.00;3.00;2.00
49343;PMS5003;35210;41.606;-87.602;2022-10-15T08:12:07;2.80;2.40;1.20
49343;PMS5003;35210;41.606;-87.602;2022-10-15T08:14:36;3.60;3.60;2.00
49343;PMS5003;35210;41.606;-87.602;2022-10-15T08:17:06;5.00;4.00;2.00
49343;PMS5003;35210;41.606;-87.602;2022-10-15T08:19:34;6.00;4.40;2.40
49343;PMS5003;35210;41.606;-87.602;2022-10-15T08:22:02;3.00;3.00;1.00
49343;PMS5003;35210;41.606;-87.602;2022-10-15T08:24:30;6.60;3.00;1.20
49343;PMS5003;35210;41.606;-87.602;2022-10-15T08:26:58;4.40;3.80;2.00
49343;PMS5003;35210;41.606;-87.602;2022-10-15T08:29:26;4.00;4.00;1.80
49343;PMS5003;35210;41.606;-87.602;2022-10-15T08:31:54;5.40;4.00;2.00
49343;PMS5003;35210;41.606;-87.602;2022-10-15T08:34:24;3.00;3.00;2.40
49343;PMS5003;35210;41.606;-87.602;2022-10-15T08:36:52;7.60;4.00;2.40
49343;PMS5003;35210;41.606;-87.602;2022-10-15T08:39:20;4.00;3.80;2.00
49343;PMS5003;35210;41.606;-87.602;2022-10-15T08:41:49;2.80;2.80;2.00
49343;PMS5003;35210;41.606;-87.602;2022-10-15T08:44:21;2.80;2.40;2.00
49343;PMS5003;35210;41.606;-87.602;2022-10-15T08:46:53;5.00;5.00;1.20
49343;PMS5003;35210;41.606;-87.602;2022-10-15T08:49:36;4.60;3.40;2.00
49343;PMS5003;35210;41.606;-87.602;2022-10-15T08:52:13;4.00;4.00;2.00
49343;PMS5003;35210;41.606;-87.602;2022-10-15T08:54:47;7.00;5.00;2.80
49343;PMS5003;35210;41.606;-87.602;2022-10-15T08:57:16;5.00;3.80;2.00
49343;PMS5003;35210;41.606;-87.602;2022-10-15T08:59:54;1.40;0.40;0.00
49343;PMS5003;35210;41.606;-87.602;2022-10-15T09:02:29;3.40;3.40;2.00
49343;PMS5003;35210;41.606;-87.602;2022-10-15T09:05:15;3.00;1.20;1.00
49343;PMS5003;35210;41.606;-87.602;2022-10-15T09:07:55;3.80;3.80;2.00
49343;PMS5003;35210;41.606;-87.602;2022-10-15T09:10:31;4.00;4.00;2.00
49343;PMS5003;35210;41.606;-87.602;2022-10-15T09:13:08;7.00;4.00;2.00
49343;PMS5003;35210;41.606;-87.602;2022-10-15T09:15:42;6.20;4.40;2.40
49343;PMS5003;35210;41.606;-87.602;2022-10-15T09:18:17;5.40;3.80;2.60
49343;PMS5003;35210;41.606;-87.602;2022-10-15T09:20:51;4.00;2.80;1.80
49343;PMS5003;35210;41.606;-87.602;2022-10-15T09:23:21;4.80;4.80;3.00
49343;PMS5003;35210;41.606;-87.602;2022-10-15T09:25:54;3.20;3.00;1.80
49343;PMS5003;35210;41.606;-87.602;2022-10-15T09:28:27;6.20;3.60;3.00
49343;PMS5003;35210;41.606;-87.602;2022-10-15T09:31:02;4.60;3.60;2.00
49343;PMS5003;35210;41.606;-87.602;2022-10-15T09:33:35;3.40;3.40;2.00
49343;PMS5003;35210;41.606;-87.602;2022-10-15T09:36:12;5.00;5.00;2.00
49343;PMS5003;35210;41.606;-87.602;2022-10-15T09:38:48;4.00;2.60;1.60
49343;PMS5003;35210;41.606;-87.602;2022-10-15T09:41:27;7.80;3.80;2.00
49343;PMS5003;35210;41.606;-87.602;2022-10-15T09:44:02;5.20;2.60;1.00
49343;PMS5003;35210;41.606;-87.602;2022-10-15T09:46:41;3.40;3.40;2.00
49343;PMS5003;35210;41.606;-87.602;2022-10-15T09:49:12;4.00;4.00;2.00
49343;PMS5003;35210;41.606;-87.602;2022-10-15T09:51:47;4.00;3.00;1.80
49343;PMS5003;35210;41.606;-87.602;2022-10-15T09:54:25;4.00;4.00;2.00
49343;PMS5003;35210;41.606;-87.602;2022-10-15T09:57:04;4.40;3.20;2.00
49343;PMS5003;35210;41.606;-87.602;2022-10-15T09:59:36;3.40;3.40;1.60
49343;PMS5003;35210;41.606;-87.602;2022-10-15T10:02:15;7.40;4.00;2.20
49343;PMS5003;35210;41.606;-87.602;2022-10-15T10:04:45;4.20;4.20;2.00
49343;PMS5003;35210;41.606;-87.602;2022-10-15T10:07:31;5.40;4.00;2.60
49343;PMS5003;35210;41.606;-87.602;2022-10-15T10:10:02;8.40;7.00;3.00
49343;PMS5003;35210;41.606;-87.602;2022-10-15T10:12:35;6.20;6.20;3.00
49343;PMS5003;35210;41.606;-87.602;2022-10-15T10:15:05;6.60;2.00;0.60
49343;PMS5003;35210;41.606;-87.602;2022-10-15T10:17:52;5.60;5.60;2.00
49343;PMS5003;35210;41.606;-87.602;2022-10-15T10:20:21;4.60;4.00;2.00
49343;PMS5003;35210;41.606;-87.602;2022-10-15T10:22:53;3.40;3.00;2.20
49343;PMS5003;35210;41.606;-87.602;2022-10-15T10:25:34;8.00;6.00;2.80
49343;PMS5003;35210;41.606;-87.602;2022-10-15T10:30:58;6.00;5.60;2.40
49343;PMS5003;35210;41.606;-87.602;2022-10-15T10:33:30;3.00;3.00;2.00
49343;PMS5003;35210;41.606;-87.602;2022-10-15T10:36:02;3.60;3.60;2.00
49343;PMS5003;35210;41.606;-87.602;2022-10-15T10:38:34;5.80;5.80;2.00
49343;PMS5003;35210;41.606;-87.602;2022-10-15T10:41:04;9.20;3.00;2.00
49343;PMS5003;35210;41.606;-87.602;2022-10-15T10:43:35;5.20;4.00;2.20
49343;PMS5003;35210;41.606;-87.602;2022-10-15T10:46:05;5.20;5.20;2.60
49343;PMS5003;35210;41.606;-87.602;2022-10-15T10:48:45;6.00;6.00;3.00
49343;PMS5003;35210;41.606;-87.602;2022-10-15T10:51:16;4.80;4.80;1.40
49343;PMS5003;35210;41.606;-87.602;2022-10-15T10:53:49;8.60;6.00;2.60
49343;PMS5003;35210;41.606;-87.602;2022-10-15T10:56:20;3.40;3.40;2.00
49343;PMS5003;35210;41.606;-87.602;2022-10-15T10:58:51;7.60;4.60;2.60
49343;PMS5003;35210;41.606;-87.602;2022-10-15T11:01:24;4.40;4.40;3.00
49343;PMS5003;35210;41.606;-87.602;2022-10-15T11:03:53;6.00;4.00;2.00
49343;PMS5003;35210;41.606;-87.602;2022-10-15T11:06:31;7.00;7.00;2.80
49343;PMS5003;35210;41.606;-87.602;2022-10-15T11:09:26;7.00;5.20;3.20
49343;PMS5003;35210;41.606;-87.602;2022-10-15T11:12:11;2.00;2.00;1.00
49343;PMS5003;35210;41.606;-87.602;2022-10-15T11:14:56;7.40;5.60;2.60
49343;PMS5003;35210;41.606;-87.602;2022-10-15T11:17:34;6.60;3.60;2.00
49343;PMS5003;35210;41.606;-87.602;2022-10-15T11:20:15;5.20;4.00;2.00
49343;PMS5003;35210;41.606;-87.602;2022-10-15T11:22:52;3.80;3.80;1.00
49343;PMS5003;35210;41.606;-87.602;2022-10-15T11:25:36;6.00;4.00;2.00
49343;PMS5003;35210;41.606;-87.602;2022-10-15T11:28:18;4.60;3.40;2.00
49343;PMS5003;35210;41.606;-87.602;2022-10-15T11:30:59;5.20;4.00;2.20
49343;PMS5003;35210;41.606;-87.602;2022-10-15T11:33:38;9.00;3.60;2.00
49343;PMS5003;35210;41.606;-87.602;2022-10-15T11:36:27;5.80;4.00;2.00
49343;PMS5003;35210;41.606;-87.602;2022-10-15T11:39:12;6.40;3.00;2.00
49343;PMS5003;35210;41.606;-87.602;2022-10-15T11:42:03;4.00;4.00;2.00
49343;PMS5003;35210;41.606;-87.602;2022-10-15T11:44:48;7.80;5.20;2.80
49343;PMS5003;35210;41.606;-87.602;2022-10-15T11:47:29;8.80;6.20;3.00
49343;PMS5003;35210;41.606;-87.602;2022-10-15T11:50:21;6.00;6.00;3.00
49343;PMS5003;35210;41.606;-87.602;2022-10-15T11:53:04;8.20;5.60;3.00
49343;PMS5003;35210;41.606;-87.602;2022-10-15T11:56:01;4.00;4.00;2.60
49343;PMS5003;35210;41.606;-87.602;2022-10-15T11:58:39;3.00;3.00;1.00
49343;PMS5003;35210;41.606;-87.602;2022-10-15T12:01:14;9.20;6.00;2.80
49343;PMS5003;35210;41.606;-87.602;2022-10-15T12:03:49;6.60;6.40;3.20
49343;PMS5003;35210;41.606;-87.602;2022-10-15T12:06:21;6.20;4.00;2.00
49343;PMS5003;35210;41.606;-87.602;2022-10-15T12:08:55;6.20;5.20;3.00
49343;PMS5003;35210;41.606;-87.602;2022-10-15T12:11:29;6.40;6.00;2.20
49343;PMS5003;35210;41.606;-87.602;2022-10-15T12:14:12;7.00;4.80;3.00
49343;PMS5003;35210;41.606;-87.602;2022-10-15T12:16:48;8.80;5.00;1.60
49343;PMS5003;35210;41.606;-87.602;2022-10-15T12:19:25;6.40;3.80;1.40
49343;PMS5003;35210;41.606;-87.602;2022-10-15T12:22:04;7.20;7.00;3.00
49343;PMS5003;35210;41.606;-87.602;2022-10-15T12:27:26;6.80;6.40;3.00
49343;PMS5003;35210;41.606;-87.602;2022-10-15T12:30:12;8.00;6.00;3.00
49343;PMS5003;35210;41.606;-87.602;2022-10-15T12:32:47;11.20;9.20;5.20
49343;PMS5003;35210;41.606;-87.602;2022-10-15T12:35:21;11.20;7.00;4.20
49343;PMS5003;35210;41.606;-87.602;2022-10-15T12:38:09;8.60;7.00;3.00
49343;PMS5003;35210;41.606;-87.602;2022-10-15T12:40:45;11.00;9.40;4.20
49343;PMS5003;35210;41.606;-87.602;2022-10-15T12:43:21;9.20;8.00;4.20
49343;PMS5003;35210;41.606;-87.602;2022-10-15T12:45:53;6.00;4.20;2.20
49343;PMS5003;35210;41.606;-87.602;2022-10-15T12:48:29;9.80;7.00;4.20
49343;PMS5003;35210;41.606;-87.602;2022-10-15T12:54:00;5.80;5.00;3.00
49343;PMS5003;35210;41.606;-87.602;2022-10-15T12:56:35;5.00;5.00;2.20
49343;PMS5003;35210;41.606;-87.602;2022-10-15T13:01:57;8.40;7.20;5.20
49343;PMS5003;35210;41.606;-87.602;2022-10-15T13:04:35;5.20;5.20;3.00
49343;PMS5003;35210;41.606;-87.602;2022-10-15T13:07:05;9.40;8.00;3.40
49343;PMS5003;35210;41.606;-87.602;2022-10-15T13:09:33;7.60;6.80;3.40
49343;PMS5003;35210;41.606;-87.602;2022-10-15T13:12:01;5.00;5.00;3.00
49343;PMS5003;35210;41.606;-87.602;2022-10-15T13:14:31;8.00;8.00;4.80
49343;PMS5003;35210;41.606;-87.602;2022-10-15T13:17:12;5.80;5.40;3.00
49343;PMS5003;35210;41.606;-87.602;2022-10-15T13:19:45;10.80;9.20;5.60
49343;PMS5003;35210;41.606;-87.602;2022-10-15T13:22:20;11.00;10.00;5.20
49343;PMS5003;35210;41.606;-87.602;2022-10-15T13:24:49;9.60;6.20;4.60
49343;PMS5003;35210;41.606;-87.602;2022-10-15T13:27:21;7.60;6.20;3.00
49343;PMS5003;35210;41.606;-87.602;2022-10-15T13:29:55;7.40;5.40;3.40
49343;PMS5003;35210;41.606;-87.602;2022-10-15T13:32:28;10.40;7.00;3.20
49343;PMS5003;35210;41.606;-87.602;2022-10-15T13:34:59;9.20;7.60;5.20
49343;PMS5003;35210;41.606;-87.602;2022-10-15T13:37:30;13.00;9.40;6.20
49343;PMS5003;35210;41.606;-87.602;2022-10-15T13:40:01;10.60;8.60;5.40
49343;PMS5003;35210;41.606;-87.602;2022-10-15T13:42:30;8.40;7.00;3.00
49343;PMS5003;35210;41.606;-87.602;2022-10-15T13:45:00;8.80;7.00;5.00
49343;PMS5003;35210;41.606;-87.602;2022-10-15T13:47:32;6.40;6.40;3.40
49343;PMS5003;35210;41.606;-87.602;2022-10-15T13:50:19;7.00;6.60;3.00
49343;PMS5003;35210;41.606;-87.602;2022-10-15T13:52:49;3.00;3.00;1.00
49343;PMS5003;35210;41.606;-87.602;2022-10-15T13:55:22;5.20;4.40;2.20
49343;PMS5003;35210;41.606;-87.602;2022-10-15T13:57:55;3.00;3.00;2.00
49343;PMS5003;35210;41.606;-87.602;2022-10-15T14:00:26;12.00;10.80;5.80
49343;PMS5003;35210;41.606;-87.602;2022-10-15T14:03:12;9.20;7.80;2.20
49343;PMS5003;35210;41.606;-87.602;2022-10-15T14:05:42;9.40;6.80;3.60
49343;PMS5003;35210;41.606;-87.602;2022-10-15T14:08:19;9.40;7.60;2.80
49343;PMS5003;35210;41.606;-87.602;2022-10-15T14:10:51;4.00;4.00;2.00
49343;PMS5003;35210;41.606;-87.602;2022-10-15T14:13:21;9.60;9.60;6.00
49343;PMS5003;35210;41.606;-87.602;2022-10-15T14:16:11;11.00;11.00;7.20
49343;PMS5003;35210;41.606;-87.602;2022-10-15T14:18:49;10.00;8.00;5.80
49343;PMS5003;35210;41.606;-87.602;2022-10-15T14:21:21;7.80;7.80;6.00
49343;PMS5003;35210;41.606;-87.602;2022-10-15T14:24:01;9.20;6.60;4.20
49343;PMS5003;35210;41.606;-87.602;2022-10-15T14:26:31;8.80;8.00;5.40
49343;PMS5003;35210;41.606;-87.602;2022-10-15T14:29:00;9.60;8.20;6.00
49343;PMS5003;35210;41.606;-87.602;2022-10-15T14:31:30;13.80;7.20;5.20
49343;PMS5003;35210;41.606;-87.602;2022-10-15T14:36:57;8.00;8.00;6.00
49343;PMS5003;35210;41.606;-87.602;2022-10-15T14:39:28;8.40;5.20;3.20
49343;PMS5003;35210;41.606;-87.602;2022-10-15T14:41:59;7.00;5.60;3.00
49343;PMS5003;35210;41.606;-87.602;2022-10-15T14:47:19;5.60;5.60;3.00
49343;PMS5003;35210;41.606;-87.602;2022-10-15T14:49:52;6.40;5.20;3.00